createdAt,value
2023-03-16T00:01:20.478Z,35.16
2023-03-16T07:04:20.879Z,35.05
2023-03-16T09:00:25.320Z,37.25
2023-03-16T10:08:24.306Z,34.48
2023-03-16T12:44:25.847Z,32.88
2023-03-16T12:56:26.393Z,32.67
2023-03-16T13:00:26.069Z,32.76
2023-03-16T13:04:26.401Z,32.71
2023-03-16T13:08:26.357Z,32.36
2023-03-16T13:12:26.397Z,32.60
2023-03-16T13:20:31.129Z,32.65
2023-03-16T13:28:26.895Z,31.88
2023-03-16T13:40:26.428Z,33.45
2023-03-16T13:44:26.413Z,34.52
2023-03-16T13:48:26.371Z,34.97
2023-03-16T13:52:25.967Z,34.86
2023-03-16T13:56:26.379Z,34.69
2023-03-16T14:00:26.406Z,34.44
2023-03-16T14:04:26.375Z,33.89
2023-03-16T14:08:26.879Z,34.23
2023-03-16T14:12:26.892Z,34.23
2023-03-16T14:16:26.954Z,33.47
2023-03-16T14:20:26.396Z,33.93
2023-03-16T14:24:26.386Z,33.51
2023-03-16T14:28:26.201Z,33.40
2023-03-16T14:32:26.503Z,33.33
2023-03-16T14:36:26.388Z,33.09
2023-03-16T14:40:26.403Z,32.88
2023-03-16T14:44:26.393Z,32.93
2023-03-16T14:48:26.431Z,32.76
2023-03-16T14:52:26.397Z,32.76
2023-03-16T14:56:26.903Z,32.69
2023-03-16T15:00:26.501Z,32.58
2023-03-16T15:04:26.924Z,32.53
2023-03-16T15:08:26.901Z,32.50
2023-03-16T15:12:26.777Z,32.62
2023-03-16T15:16:27.414Z,32.63
2023-03-16T15:20:27.443Z,32.49
2023-03-16T15:24:27.413Z,32.64
2023-03-16T15:28:27.439Z,32.76
2023-03-16T15:44:26.851Z,32.87
2023-03-16T15:52:26.955Z,33.01
2023-03-16T15:56:26.614Z,33.07
2023-03-16T16:00:26.948Z,32.92
2023-03-16T16:04:26.555Z,32.99
2023-03-16T16:08:26.945Z,33.28
2023-03-16T16:12:26.362Z,33.36
2023-03-16T16:16:26.449Z,33.30
2023-03-16T16:20:26.443Z,33.30
2023-03-16T18:20:28.116Z,34.04
2023-03-16T18:24:28.255Z,34.07
2023-03-16T18:28:28.362Z,34.09
2023-03-16T18:32:28.649Z,34.08
2023-03-16T18:36:28.714Z,34.14
2023-03-16T18:40:29.163Z,34.13
2023-03-16T18:44:29.075Z,34.14
2023-03-16T18:48:29.282Z,34.17
2023-03-16T18:52:29.459Z,34.22
2023-03-16T18:56:29.658Z,34.23
2023-03-16T19:00:30.007Z,34.24
2023-03-16T19:04:30.116Z,34.29
2023-03-16T19:08:30.319Z,34.30
2023-03-16T19:12:30.296Z,34.32
2023-03-16T19:16:30.304Z,34.35
2023-03-16T19:20:30.318Z,34.35
2023-03-16T19:24:30.224Z,34.36
2023-03-16T19:28:30.211Z,34.40
2023-03-16T19:32:30.202Z,34.42
2023-03-16T19:36:30.503Z,34.45
2023-03-16T19:40:30.491Z,34.47
2023-03-16T19:44:30.714Z,34.51
2023-03-16T19:48:30.937Z,34.53
2023-03-16T19:52:31.291Z,34.54
2023-03-16T19:56:31.366Z,34.61
2023-03-16T20:00:31.536Z,34.60
2023-03-16T20:04:31.747Z,34.65
2023-03-16T20:08:31.883Z,34.68
2023-03-16T20:12:31.957Z,34.65
2023-03-16T20:16:32.063Z,34.71
2023-03-16T20:20:32.222Z,34.71
2023-03-16T20:24:32.307Z,34.73
2023-03-16T21:04:32.654Z,34.87
2023-03-16T21:08:32.656Z,34.85
2023-03-16T21:12:32.782Z,34.87
2023-03-16T21:16:32.731Z,34.86
2023-03-16T21:20:32.753Z,34.88
2023-03-16T21:24:32.793Z,34.89
2023-03-16T21:28:32.864Z,34.85
2023-03-16T21:32:32.919Z,34.86
